Time;durP1;ratioP1;P1;durP2;ratioP2;P2;SDS_P1;SDS_P2;PMS_P1;PMS_P2;Temp;Humidity;BMP_temperature;BMP_pressure;BME280_temperature;BME280_humidity;BME280_pressure;Samples;Min_cycle;Max_cycle;Signal;HPM_P1;HPM_P2
2023/05/23 00:00:32;;;;;;;6.30;5.70;;;24.40;57.20;25.00;100851.00;;;;5009677;28;20183;-52
2023/05/23 00:02:59;;;;;;;6.20;5.70;;;24.40;57.20;25.00;100854.00;;;;5009874;28;20290;-50
2023/05/23 00:05:25;;;;;;;5.60;5.20;;;24.40;57.30;25.00;100853.00;;;;5009932;28;20191;-52
2023/05/23 00:07:51;;;;;;;6.00;5.50;;;24.40;57.30;25.00;100851.00;;;;5009689;28;20255;-52
2023/05/23 00:10:17;;;;;;;5.70;5.20;;;24.40;57.30;25.00;100844.00;;;;5009687;28;20195;-53
2023/05/23 00:12:43;;;;;;;5.83;5.33;;;24.40;57.40;25.00;100847.00;;;;5009386;28;20179;-52
2023/05/23 00:15:09;;;;;;;5.70;5.20;;;24.40;57.40;24.90;100845.00;;;;5009246;28;20269;-52
2023/05/23 00:17:36;;;;;;;5.80;5.30;;;24.40;57.50;24.90;100854.00;;;;5008992;28;20258;-52
2023/05/23 00:20:03;;;;;;;5.60;5.13;;;24.40;57.50;24.90;100856.00;;;;5009273;28;20188;-53
2023/05/23 00:22:28;;;;;;;5.60;5.17;;;24.40;57.50;24.90;100859.00;;;;5009509;28;20211;-52
2023/05/23 00:24:56;;;;;;;6.43;5.93;;;24.30;57.50;24.90;100861.00;;;;5009263;28;20199;-53
2023/05/23 00:27:22;;;;;;;6.20;5.70;;;24.30;57.50;24.90;100859.00;;;;5008956;28;20559;-53
2023/05/23 00:29:48;;;;;;;5.90;5.40;;;24.30;57.40;24.90;100857.00;;;;5009200;28;20179;-50
2023/05/23 00:32:14;;;;;;;6.07;5.57;;;24.30;57.40;24.80;100863.00;;;;5009098;28;20274;-51
2023/05/23 00:34:40;;;;;;;5.90;5.30;;;24.20;57.40;24.80;100852.00;;;;5009058;28;20654;-52
2023/05/23 00:37:07;;;;;;;5.97;5.50;;;24.20;57.40;24.80;100867.00;;;;5008875;28;20362;-51
2023/05/23 00:39:33;;;;;;;5.68;5.20;;;24.20;57.40;24.80;100868.00;;;;5009114;28;20181;-51
2023/05/23 00:41:58;;;;;;;5.63;5.23;;;24.20;57.40;24.80;100865.00;;;;5008836;28;20186;-50
2023/05/23 00:44:24;;;;;;;6.15;5.55;;;24.20;57.50;24.80;100865.00;;;;5008194;28;20179;-51
2023/05/23 00:46:52;;;;;;;6.28;5.78;;;24.20;57.60;24.70;100870.00;;;;5007293;28;20204;-51
2023/05/23 00:49:19;;;;;;;6.75;6.20;;;24.20;57.50;24.70;100864.00;;;;5007450;28;20206;-51
2023/05/23 00:51:45;;;;;;;6.20;5.70;;;24.20;57.40;24.70;100871.00;;;;5007607;28;20621;-51
2023/05/23 00:54:10;;;;;;;6.63;6.03;;;24.20;57.40;24.60;100862.00;;;;4991659;28;20188;-51
2023/05/23 00:56:36;;;;;;;6.80;6.20;;;24.10;57.30;24.60;100817.00;;;;4977105;28;20214;-51
2023/05/23 00:59:02;;;;;;;7.17;6.57;;;24.10;57.30;24.60;100880.00;;;;4991407;28;20227;-52
2023/05/23 01:01:28;;;;;;;6.93;6.43;;;24.10;57.30;24.60;100883.00;;;;5008866;28;20188;-52
2023/05/23 01:03:54;;;;;;;7.30;6.72;;;24.10;57.20;24.60;100867.00;;;;5008852;28;20305;-52
2023/05/23 01:06:19;;;;;;;7.40;6.80;;;24.00;57.00;24.50;100882.00;;;;5008742;28;20186;-52
2023/05/23 01:08:45;;;;;;;7.17;6.57;;;24.00;57.00;24.50;100887.00;;;;5008947;28;20211;-52
2023/05/23 01:11:33;;;;;;;7.33;6.70;;;24.00;57.00;24.50;100881.00;;;;5009784;28;20238;-53
2023/05/23 01:14:06;;;;;;;7.20;6.60;;;24.00;56.90;24.50;100884.00;;;;5008105;28;20188;-53
2023/05/23 01:16:49;;;;;;;7.40;6.80;;;24.00;57.00;24.40;100886.00;;;;5006992;28;20194;-53
2023/05/23 01:19:39;;;;;;;7.07;6.57;;;24.00;56.90;24.40;100883.00;;;;4975614;28;20601;-53
2023/05/23 01:22:11;;;;;;;7.50;6.90;;;23.90;56.90;24.40;100887.00;;;;5007383;28;20224;-52
2023/05/23 01:24:54;;;;;;;7.07;6.50;;;23.90;56.90;24.40;100883.00;;;;4991520;28;20188;-53
2023/05/23 01:27:49;;;;;;;6.90;6.40;;;23.90;56.90;24.30;100888.00;;;;5006984;28;20199;-52
2023/05/23 01:30:17;;;;;;;7.00;6.50;;;23.90;56.80;24.30;100882.00;;;;5008257;28;20274;-52
2023/05/23 01:32:44;;;;;;;5.80;5.40;;;23.90;56.60;24.30;100891.00;;;;4975003;28;20176;-52
2023/05/23 01:35:09;;;;;;;6.23;5.73;;;23.80;56.50;24.30;100890.00;;;;5007040;28;20241;-52
2023/05/23 01:37:35;;;;;;;5.80;5.40;;;23.80;56.50;24.20;100882.00;;;;5006614;28;20697;-52
2023/05/23 01:40:01;;;;;;;5.80;5.30;;;23.80;56.10;24.20;100890.00;;;;5008230;28;20684;-53
2023/05/23 01:42:27;;;;;;;5.93;5.43;;;23.80;55.80;24.20;100893.00;;;;5008334;28;20186;-51
2023/05/23 01:44:53;;;;;;;5.27;4.90;;;23.80;55.60;24.10;100903.00;;;;4990763;28;20183;-51
2023/05/23 01:47:18;;;;;;;5.20;4.80;;;23.70;55.50;24.10;100889.00;;;;5006454;28;20207;-51
2023/05/23 01:49:44;;;;;;;4.53;4.23;;;23.70;55.60;24.10;100893.00;;;;4990596;28;20202;-50
2023/05/23 01:52:10;;;;;;;5.10;4.70;;;23.70;55.70;24.10;100898.00;;;;5007135;28;20611;-51
2023/05/23 01:54:36;;;;;;;4.53;4.13;;;23.60;55.70;24.10;100899.00;;;;5006955;28;20179;-51
2023/05/23 01:57:02;;;;;;;4.70;4.30;;;23.60;55.70;24.00;100892.00;;;;5007864;28;20619;-51
2023/05/23 01:59:28;;;;;;;4.50;4.10;;;23.60;55.80;24.00;100912.00;;;;4990992;28;20225;-51
2023/05/23 02:01:54;;;;;;;4.27;3.97;;;23.60;55.70;24.00;100905.00;;;;5006880;28;20539;-53
2023/05/23 02:04:20;;;;;;;4.60;4.20;;;23.60;55.80;24.00;100906.00;;;;5006887;28;20191;-51
2023/05/23 02:06:46;;;;;;;4.33;3.93;;;23.60;55.70;24.00;100910.00;;;;5006333;28;20245;-51
2023/05/23 02:09:12;;;;;;;4.20;3.90;;;23.60;55.80;24.00;100900.00;;;;5008004;28;20586;-52
2023/05/23 02:11:38;;;;;;;4.00;3.70;;;23.60;55.80;24.00;100905.00;;;;5007983;28;20190;-52
2023/05/23 02:14:03;;;;;;;4.03;3.73;;;23.50;55.80;24.00;100905.00;;;;5008511;28;20654;-52
2023/05/23 02:16:29;;;;;;;3.77;3.47;;;23.50;55.90;23.90;100908.00;;;;5011562;28;20635;-52
2023/05/23 02:18:55;;;;;;;3.80;3.50;;;23.50;55.90;23.90;100911.00;;;;5011615;28;20196;-52
2023/05/23 02:21:24;;;;;;;4.10;3.70;;;23.50;56.00;23.90;100898.00;;;;5011655;28;20187;-52
2023/05/23 02:23:49;;;;;;;4.00;3.70;;;23.50;56.00;23.90;100910.00;;;;5011468;28;20183;-52
2023/05/23 02:26:16;;;;;;;3.80;3.50;;;23.50;56.10;23.90;100904.00;;;;5015316;28;20182;-52
2023/05/23 02:28:42;;;;;;;3.90;3.60;;;23.50;56.60;23.90;100907.00;;;;5011491;28;20203;-51
2023/05/23 02:31:08;;;;;;;3.77;3.47;;;23.40;56.50;23.80;100903.00;;;;5011460;28;20270;-51
2023/05/23 02:33:34;;;;;;;4.03;3.63;;;23.40;55.90;23.80;100911.00;;;;5010083;28;20238;-50
2023/05/23 02:35:59;;;;;;;3.47;3.17;;;23.40;56.00;23.80;100916.00;;;;5011571;28;20600;-51
2023/05/23 02:38:26;;;;;;;3.80;3.50;;;23.40;56.10;23.80;100912.00;;;;5010988;28;20239;-51
2023/05/23 02:40:52;;;;;;;3.60;3.30;;;23.40;56.10;23.80;100912.00;;;;5011106;28;20265;-51
2023/05/23 02:43:19;;;;;;;3.40;3.17;;;23.30;56.10;23.80;100918.00;;;;5011307;28;20180;-51
2023/05/23 02:45:44;;;;;;;3.90;3.60;;;23.40;56.20;23.80;100924.00;;;;5011265;28;20377;-51
2023/05/23 02:48:10;;;;;;;3.93;3.53;;;23.40;56.20;23.70;100922.00;;;;5009670;28;20274;-51
2023/05/23 02:50:36;;;;;;;4.63;3.47;;;23.30;56.30;23.70;100921.00;;;;5011180;28;20310;-50
2023/05/23 02:53:02;;;;;;;4.00;3.60;;;23.30;56.30;23.70;100925.00;;;;5010915;28;20262;-51
2023/05/23 02:55:28;;;;;;;4.03;3.63;;;23.30;56.40;23.70;100922.00;;;;5011362;28;20765;-51
2023/05/23 02:57:55;;;;;;;4.10;3.80;;;23.30;56.40;23.70;100922.00;;;;5011228;28;20195;-51
2023/05/23 03:00:21;;;;;;;4.00;3.60;;;23.30;56.40;23.70;100914.00;;;;5015160;28;20625;-51
2023/05/23 03:02:47;;;;;;;5.50;3.53;;;23.30;56.50;23.60;100917.00;;;;5012070;28;20186;-51
2023/05/23 03:05:12;;;;;;;3.90;3.50;;;23.30;57.10;23.70;100919.00;;;;5011149;28;20183;-52
2023/05/23 03:07:38;;;;;;;4.20;3.80;;;23.30;56.80;23.60;100927.00;;;;5011492;28;20226;-52
2023/05/23 03:10:05;;;;;;;4.10;3.80;;;23.30;56.90;23.60;100911.00;;;;5011699;28;20555;-52
2023/05/23 03:12:30;;;;;;;3.93;3.60;;;23.20;56.90;23.60;100909.00;;;;5011630;28;20549;-51
2023/05/23 03:14:56;;;;;;;4.20;3.80;;;23.20;56.90;23.60;100920.00;;;;5013262;28;20183;-51
2023/05/23 03:17:24;;;;;;;4.27;3.80;;;23.20;56.90;23.60;100915.00;;;;5011096;28;20200;-51
2023/05/23 03:19:50;;;;;;;6.57;4.17;;;23.20;56.90;23.60;100915.00;;;;5010814;28;20188;-52
2023/05/23 03:22:15;;;;;;;4.67;4.20;;;23.20;56.80;23.60;100922.00;;;;5010598;28;20320;-53
2023/05/23 03:24:41;;;;;;;4.50;3.83;;;23.20;56.70;23.50;100929.00;;;;5010585;28;20650;-50
2023/05/23 03:27:07;;;;;;;4.40;3.90;;;23.20;56.70;23.50;100925.00;;;;5008858;28;20203;-52
2023/05/23 03:29:33;;;;;;;4.57;3.90;;;23.20;56.80;23.50;100927.00;;;;5010478;28;20198;-51
2023/05/23 03:31:59;;;;;;;4.43;3.80;;;23.10;56.70;23.50;100923.00;;;;5010064;28;20184;-51
2023/05/23 03:34:25;;;;;;;4.90;4.00;;;23.10;56.70;23.50;100923.00;;;;5010043;28;20254;-52
2023/05/23 03:36:51;;;;;;;5.47;3.83;;;23.10;56.80;23.50;100939.00;;;;5009745;28;20257;-51
2023/05/23 03:39:17;;;;;;;10.03;4.03;;;23.10;56.80;23.40;100933.00;;;;5010089;28;20574;-51
2023/05/23 03:41:43;;;;;;;5.93;3.90;;;23.10;56.80;23.40;100928.00;;;;5010396;28;20179;-50
2023/05/23 03:44:09;;;;;;;4.40;3.60;;;23.10;56.80;23.40;100931.00;;;;5008646;28;20658;-51
2023/05/23 03:46:34;;;;;;;4.70;3.90;;;23.10;56.90;23.40;100935.00;;;;5010181;28;20662;-52
2023/05/23 03:49:00;;;;;;;5.07;4.00;;;23.00;56.90;23.40;100936.00;;;;5011083;28;20194;-51
2023/05/23 03:51:27;;;;;;;5.03;4.30;;;23.00;56.70;23.40;100936.00;;;;5001841;28;20242;-51
2023/05/23 03:53:52;;;;;;;6.87;4.10;;;23.00;56.80;23.40;100942.00;;;;5010614;28;20184;-51
2023/05/23 03:56:18;;;;;;;5.43;4.20;;;23.00;56.90;23.40;100937.00;;;;5010467;28;20199;-50
2023/05/23 03:58:44;;;;;;;4.20;3.87;;;23.00;57.00;23.40;100938.00;;;;5010649;28;20202;-52
2023/05/23 04:01:10;;;;;;;5.13;3.90;;;23.00;57.00;23.30;100942.00;;;;5010381;28;20645;-52
2023/05/23 04:03:36;;;;;;;6.63;4.43;;;23.00;57.00;23.30;100943.00;;;;5010545;28;20176;-52
2023/05/23 04:06:01;;;;;;;8.80;4.33;;;23.00;57.10;23.30;100941.00;;;;5009357;28;20672;-51
2023/05/23 04:08:28;;;;;;;8.63;4.60;;;22.90;57.10;23.30;100945.00;;;;5010498;28;20196;-51
2023/05/23 04:10:54;;;;;;;5.90;4.70;;;22.90;57.30;23.30;100944.00;;;;5010282;28;20184;-51
2023/05/23 04:13:22;;;;;;;5.57;4.80;;;23.00;57.40;23.30;100955.00;;;;5010159;28;20218;-51
2023/05/23 04:15:47;;;;;;;6.93;4.73;;;22.90;57.20;23.20;100968.00;;;;5009972;28;20194;-51
2023/05/23 04:18:13;;;;;;;6.47;4.47;;;22.90;57.30;23.20;100955.00;;;;5009506;28;20203;-51
2023/05/23 04:20:40;;;;;;;6.20;4.40;;;22.90;57.20;23.20;100956.00;;;;5009405;28;20180;-51
2023/05/23 04:23:06;;;;;;;5.70;4.43;;;22.90;57.30;23.20;100959.00;;;;5009856;28;20688;-51
2023/05/23 04:25:33;;;;;;;5.23;4.50;;;22.80;57.30;23.20;100969.00;;;;5008712;28;20207;-51
2023/05/23 04:27:59;;;;;;;6.17;4.93;;;22.80;57.30;23.20;100963.00;;;;5009179;28;20420;-52
2023/05/23 04:30:26;;;;;;;5.93;4.50;;;22.80;57.30;23.20;100965.00;;;;5010033;28;20547;-52
2023/05/23 04:32:52;;;;;;;5.20;4.60;;;22.80;57.30;23.10;100963.00;;;;5009924;28;20194;-51
2023/05/23 04:35:18;;;;;;;5.67;4.70;;;22.80;57.40;23.10;100970.00;;;;5009393;28;20179;-51
2023/05/23 04:37:44;;;;;;;8.87;5.03;;;22.80;57.30;23.10;100970.00;;;;5008553;28;20698;-51
2023/05/23 04:40:12;;;;;;;5.67;5.10;;;22.80;57.30;23.10;100980.00;;;;5009823;28;20180;-52
2023/05/23 04:42:41;;;;;;;5.67;5.00;;;22.80;57.50;23.10;100979.00;;;;5008550;28;20175;-52
2023/05/23 04:45:08;;;;;;;6.60;5.90;;;22.80;57.60;23.10;100982.00;;;;5009480;28;20179;-50
2023/05/23 04:47:33;;;;;;;6.27;5.20;;;22.80;57.60;23.10;100988.00;;;;5010233;28;20195;-51
2023/05/23 04:49:59;;;;;;;5.80;5.30;;;22.70;57.50;23.10;100977.00;;;;5011131;28;20198;-51
2023/05/23 04:52:27;;;;;;;5.30;4.80;;;22.70;57.50;23.00;100978.00;;;;5009331;28;20202;-51
2023/05/23 04:54:52;;;;;;;5.53;5.03;;;22.70;57.60;23.00;100983.00;;;;5008961;28;20180;-52
2023/05/23 04:57:18;;;;;;;4.93;4.53;;;22.70;57.70;23.00;100990.00;;;;5009051;28;20207;-52
2023/05/23 04:59:45;;;;;;;6.23;4.67;;;22.70;57.60;23.00;100986.00;;;;5010129;28;20589;-52
2023/05/23 05:02:11;;;;;;;5.50;4.83;;;22.70;57.60;23.00;100980.00;;;;5015694;28;20172;-51
2023/05/23 05:04:36;;;;;;;5.43;4.93;;;22.70;57.70;23.00;100984.00;;;;5014081;28;20263;-52
2023/05/23 05:07:02;;;;;;;5.47;4.20;;;22.70;57.70;23.00;100984.00;;;;5009355;28;20215;-52
2023/05/23 05:09:29;;;;;;;5.50;4.33;;;22.70;57.70;23.00;100985.00;;;;5008539;28;20654;-51
2023/05/23 05:11:54;;;;;;;4.90;4.50;;;22.70;57.60;23.00;100996.00;;;;5009590;28;20246;-52
2023/05/23 05:14:20;;;;;;;5.80;4.60;;;22.70;57.60;23.00;100986.00;;;;5009671;28;20207;-51
2023/05/23 05:16:47;;;;;;;5.53;4.70;;;22.60;57.60;23.00;100989.00;;;;5010216;28;20199;-52
2023/05/23 05:19:13;;;;;;;4.63;4.23;;;22.70;57.80;22.90;100985.00;;;;5011202;28;20199;-51
2023/05/23 05:21:39;;;;;;;5.30;4.70;;;22.60;57.70;22.90;100992.00;;;;5009902;28;20262;-52
2023/05/23 05:24:08;;;;;;;5.33;4.83;;;22.60;57.70;22.90;100987.00;;;;5009043;28;20179;-52
2023/05/23 05:26:35;;;;;;;5.57;5.07;;;22.60;58.30;22.90;100992.00;;;;5008495;28;20841;-52
2023/05/23 05:29:01;;;;;;;6.30;4.70;;;22.60;57.80;22.90;101005.00;;;;5009872;28;20176;-52
2023/05/23 05:31:27;;;;;;;5.07;4.57;;;22.60;57.80;22.90;101004.00;;;;5012031;28;20210;-52
2023/05/23 05:33:53;;;;;;;5.50;5.00;;;22.50;57.70;22.90;100993.00;;;;5009660;28;20611;-52
2023/05/23 05:36:19;;;;;;;5.90;5.30;;;22.60;57.80;22.90;101003.00;;;;5008610;28;20210;-53
2023/05/23 05:38:45;;;;;;;5.80;5.20;;;22.50;57.80;22.90;101000.00;;;;5009170;28;20287;-52
2023/05/23 05:41:11;;;;;;;6.30;5.80;;;22.50;57.80;22.80;101007.00;;;;5009407;28;20183;-52
2023/05/23 05:43:36;;;;;;;6.17;5.67;;;22.60;58.00;22.80;101021.00;;;;5008685;28;20190;-53
2023/05/23 05:46:02;;;;;;;6.73;6.13;;;22.50;57.80;22.80;101013.00;;;;5008981;28;20556;-51
2023/05/23 05:48:28;;;;;;;5.63;5.13;;;22.50;57.90;22.80;101020.00;;;;5008305;28;20695;-50
2023/05/23 05:50:53;;;;;;;6.33;5.83;;;22.50;57.90;22.80;101016.00;;;;5011062;28;20222;-52
2023/05/23 05:53:19;;;;;;;6.70;6.10;;;22.50;58.60;22.80;101007.00;;;;5012496;28;20191;-53
2023/05/23 05:55:45;;;;;;;7.47;6.87;;;22.50;58.00;22.80;101017.00;;;;5012884;28;20650;-52
2023/05/23 05:58:11;;;;;;;7.40;6.80;;;22.50;57.90;22.80;101022.00;;;;5012555;28;20199;-52
2023/05/23 06:00:40;;;;;;;7.43;6.73;;;22.50;58.00;22.70;101018.00;;;;5012059;28;20788;-52
2023/05/23 06:03:07;;;;;;;7.37;6.77;;;22.40;57.90;22.70;101013.00;;;;5013064;28;20650;-51
2023/05/23 06:05:33;;;;;;;7.50;6.90;;;22.40;58.00;22.70;101026.00;;;;5012743;28;20254;-51
2023/05/23 06:07:59;;;;;;;7.93;7.23;;;22.40;58.00;22.70;101025.00;;;;5012230;28;20621;-52
2023/05/23 06:10:25;;;;;;;7.97;7.10;;;22.40;58.10;22.70;101029.00;;;;5012941;28;20186;-52
2023/05/23 06:12:50;;;;;;;8.27;7.57;;;22.40;58.00;22.70;101027.00;;;;5012468;28;20179;-52
2023/05/23 06:15:16;;;;;;;9.10;8.30;;;22.40;58.10;22.70;101031.00;;;;5012453;28;20560;-51
2023/05/23 06:17:43;;;;;;;9.53;8.63;;;22.40;58.10;22.70;101021.00;;;;5011595;28;20191;-52
2023/05/23 06:20:10;;;;;;;9.03;8.23;;;22.40;58.00;22.70;101025.00;;;;5012374;28;20265;-52
2023/05/23 06:22:36;;;;;;;9.20;8.40;;;22.40;58.10;22.60;101035.00;;;;5010608;28;20212;-52
2023/05/23 06:25:02;;;;;;;9.27;8.43;;;22.40;58.10;22.60;101033.00;;;;5011936;28;20172;-52
2023/05/23 06:27:27;;;;;;;8.77;8.07;;;22.30;58.10;22.60;101039.00;;;;5011716;28;20207;-51
2023/05/23 06:29:53;;;;;;;8.87;8.10;;;22.30;58.10;22.60;101027.00;;;;5012645;28;20172;-52
2023/05/23 06:32:19;;;;;;;8.30;7.70;;;22.30;58.10;22.60;101036.00;;;;5012418;28;20222;-52
2023/05/23 06:34:45;;;;;;;8.33;7.53;;;22.30;58.20;22.60;101036.00;;;;5011955;28;20180;-52
2023/05/23 06:37:10;;;;;;;8.60;7.80;;;22.30;58.10;22.60;101031.00;;;;5011689;28;20581;-52
2023/05/23 06:39:36;;;;;;;7.17;6.57;;;22.30;58.20;22.60;101027.00;;;;5012503;28;20227;-52
2023/05/23 06:42:03;;;;;;;7.67;7.00;;;22.30;58.20;22.60;101047.00;;;;5012355;28;20194;-52
2023/05/23 06:44:28;;;;;;;7.40;6.80;;;22.30;58.20;22.50;101032.00;;;;5011962;28;20188;-51
2023/05/23 06:46:56;;;;;;;8.40;7.60;;;22.20;58.20;22.50;101030.00;;;;5011390;28;20281;-52
2023/05/23 06:49:22;;;;;;;8.23;7.43;;;22.20;58.10;22.50;101038.00;;;;5011636;28;20282;-51
2023/05/23 06:51:49;;;;;;;8.37;7.57;;;22.20;58.50;22.30;101046.00;;;;5011705;28;20680;-50
2023/05/23 06:54:14;;;;;;;8.13;7.53;;;22.20;58.30;22.50;101055.00;;;;5011565;28;20182;-53
2023/05/23 06:56:40;;;;;;;8.40;7.60;;;22.20;58.40;22.50;101058.00;;;;5009812;28;20209;-52
2023/05/23 06:59:06;;;;;;;8.70;7.90;;;22.20;58.40;22.50;101063.00;;;;5011046;28;20199;-52
2023/05/23 07:01:32;;;;;;;8.07;7.37;;;22.20;58.30;22.50;101067.00;;;;5015278;28;20578;-51
2023/05/23 07:03:57;;;;;;;7.57;7.00;;;22.20;58.40;22.50;101064.00;;;;5012700;28;20174;-50
2023/05/23 07:06:23;;;;;;;7.60;6.90;;;22.20;58.50;22.40;101066.00;;;;5018781;28;20222;-50
2023/05/23 07:08:49;;;;;;;7.33;6.63;;;22.20;58.40;22.40;101081.00;;;;4993412;28;20558;-50
2023/05/23 07:11:14;;;;;;;8.27;7.40;;;22.20;58.40;22.40;101072.00;;;;5007692;28;20693;-50
2023/05/23 07:13:40;;;;;;;7.40;6.80;;;22.20;58.30;22.40;101083.00;;;;5009718;28;20180;-53
2023/05/23 07:16:06;;;;;;;8.20;7.50;;;22.10;58.10;22.40;101083.00;;;;5010992;28;20219;-51
2023/05/23 07:18:32;;;;;;;7.57;6.87;;;22.10;58.10;22.40;101072.00;;;;5012606;28;20207;-51
2023/05/23 07:20:58;;;;;;;7.57;6.97;;;22.10;58.00;22.40;101093.00;;;;5018205;28;20662;-51
2023/05/23 07:23:24;;;;;;;7.80;7.20;;;22.10;58.00;22.40;101099.00;;;;5012004;28;20195;-49
2023/05/23 07:25:50;;;;;;;8.07;7.37;;;22.10;58.00;22.40;101111.00;;;;5010475;28;20176;-50
2023/05/23 07:28:15;;;;;;;8.00;7.40;;;22.10;57.80;22.30;101093.00;;;;5011063;28;20321;-50
2023/05/23 07:30:41;;;;;;;8.67;7.97;;;22.10;57.90;22.40;101100.00;;;;5017525;28;20286;-50
2023/05/23 07:33:07;;;;;;;7.93;7.20;;;22.10;57.90;22.30;101093.00;;;;5010954;28;20172;-51
2023/05/23 07:35:33;;;;;;;7.30;6.60;;;22.00;57.70;22.30;101096.00;;;;5011556;28;20621;-50
2023/05/23 07:37:58;;;;;;;8.87;7.30;;;21.90;58.00;22.30;101109.00;;;;5010841;28;20203;-50
2023/05/23 07:40:24;;;;;;;7.47;6.77;;;22.00;58.40;22.40;101105.00;;;;5011436;28;20178;-51
2023/05/23 07:42:52;;;;;;;7.43;6.77;;;21.90;58.30;22.40;101102.00;;;;5011281;28;20183;-50
2023/05/23 07:45:17;;;;;;;7.13;6.47;;;21.90;58.50;22.40;101108.00;;;;5011096;28;20786;-51
2023/05/23 07:47:43;;;;;;;7.13;6.33;;;21.90;58.50;22.40;101105.00;;;;5010362;28;20199;-50
2023/05/23 07:50:09;;;;;;;9.83;6.93;;;21.90;58.50;22.40;101106.00;;;;5010677;28;20582;-54
2023/05/23 07:52:35;;;;;;;7.57;6.73;;;21.80;58.60;22.40;101113.00;;;;5011054;28;20190;-51
2023/05/23 07:55:01;;;;;;;7.40;6.70;;;21.80;58.60;22.40;101114.00;;;;5011655;28;20609;-50
2023/05/23 07:57:26;;;;;;;6.93;6.43;;;21.80;58.70;22.40;101114.00;;;;5010131;28;20210;-51
2023/05/23 07:59:52;;;;;;;7.30;6.70;;;21.80;58.70;22.40;101124.00;;;;5010719;28;20178;-50
2023/05/23 08:02:19;;;;;;;7.63;7.03;;;21.80;58.70;22.40;101124.00;;;;5010655;28;20260;-51
2023/05/23 08:04:45;;;;;;;6.90;6.30;;;21.80;58.70;22.40;101116.00;;;;5010766;28;20172;-50
2023/05/23 08:07:11;;;;;;;7.40;6.77;;;21.80;58.80;22.40;101124.00;;;;5011896;28;20200;-51
2023/05/23 08:09:39;;;;;;;7.03;6.43;;;21.80;58.70;22.40;101127.00;;;;5010780;28;20197;-50
2023/05/23 08:12:05;;;;;;;6.77;6.17;;;21.80;58.70;22.40;101119.00;;;;5009408;28;20254;-50
2023/05/23 08:14:31;;;;;;;6.53;5.93;;;21.80;58.70;22.40;101135.00;;;;5010894;28;20258;-50
2023/05/23 08:16:57;;;;;;;6.60;6.10;;;21.80;58.70;22.30;101121.00;;;;5009242;28;20286;-50
2023/05/23 08:19:22;;;;;;;7.33;6.33;;;21.80;58.70;22.30;101128.00;;;;5010257;28;20226;-50
2023/05/23 08:21:48;;;;;;;7.00;6.30;;;21.80;58.80;22.30;101135.00;;;;5010330;28;20183;-50
2023/05/23 08:24:14;;;;;;;6.97;6.30;;;21.80;58.70;22.30;101135.00;;;;5010425;28;20618;-51
2023/05/23 08:26:40;;;;;;;6.67;6.17;;;21.70;58.60;22.30;101133.00;;;;5009795;28;20186;-50
2023/05/23 08:29:08;;;;;;;6.70;6.10;;;21.80;58.70;22.30;101139.00;;;;5010139;28;20237;-50
2023/05/23 08:31:34;;;;;;;6.93;6.33;;;21.80;58.80;22.30;101138.00;;;;5010275;28;20183;-50
2023/05/23 08:34:00;;;;;;;6.63;6.13;;;21.70;58.70;22.30;101149.00;;;;5010698;28;20202;-50
2023/05/23 08:36:25;;;;;;;6.40;5.80;;;21.70;58.60;22.30;101146.00;;;;5010223;28;20650;-50
2023/05/23 08:38:51;;;;;;;6.93;6.33;;;21.70;58.70;22.30;101147.00;;;;5010328;28;20256;-50
2023/05/23 08:41:21;;;;;;;7.47;6.90;;;21.70;58.60;22.30;101150.00;;;;5010494;28;20202;-49
2023/05/23 08:43:47;;;;;;;6.80;6.23;;;21.80;58.70;22.30;101146.00;;;;5010545;28;20249;-50
2023/05/23 08:46:14;;;;;;;7.60;7.00;;;21.70;58.60;22.30;101161.00;;;;5009304;28;20179;-50
2023/05/23 08:48:40;;;;;;;7.77;7.00;;;21.70;58.60;22.30;101149.00;;;;5010035;28;20215;-49
2023/05/23 08:51:07;;;;;;;8.37;7.57;;;21.70;58.60;22.30;101159.00;;;;4992336;28;20180;-50
2023/05/23 08:53:32;;;;;;;7.60;7.00;;;21.80;58.80;22.30;101161.00;;;;5023582;28;20171;-50
2023/05/23 08:56:01;;;;;;;7.53;6.53;;;21.80;58.70;22.30;101172.00;;;;5008399;28;20195;-49
2023/05/23 08:58:30;;;;;;;7.70;7.00;;;21.80;58.70;22.30;101165.00;;;;5012644;28;20283;-51
2023/05/23 09:00:58;;;;;;;8.20;6.70;;;21.80;58.50;22.30;101167.00;;;;5008136;28;20247;-50
2023/05/23 09:03:25;;;;;;;7.30;6.60;;;21.80;58.60;22.30;101170.00;;;;4992052;28;20222;-50
2023/05/23 09:05:53;;;;;;;7.67;7.07;;;21.80;58.50;22.30;101181.00;;;;5009766;28;20179;-50
2023/05/23 09:08:19;;;;;;;7.30;6.57;;;21.80;58.60;22.30;101177.00;;;;5013902;28;20218;-50
2023/05/23 09:10:45;;;;;;;7.27;6.67;;;21.80;58.50;22.30;101193.00;;;;5014032;28;20590;-50
2023/05/23 09:13:11;;;;;;;7.27;6.67;;;21.80;58.50;22.30;101189.00;;;;5009186;28;20175;-50
2023/05/23 09:15:37;;;;;;;7.13;6.43;;;21.80;58.50;22.30;101184.00;;;;5009485;28;20186;-51
2023/05/23 09:18:03;;;;;;;7.03;6.53;;;21.80;58.50;22.30;101193.00;;;;5009156;28;20215;-50
2023/05/23 09:20:29;;;;;;;7.67;6.90;;;21.80;58.50;22.30;101186.00;;;;5009791;28;20191;-50
2023/05/23 09:22:55;;;;;;;7.40;6.80;;;21.80;58.50;22.30;101190.00;;;;5012775;28;20203;-51
2023/05/23 09:25:20;;;;;;;7.20;6.60;;;21.80;58.50;22.30;101195.00;;;;5010501;28;20194;-50
2023/05/23 09:27:46;;;;;;;7.47;6.87;;;21.80;58.50;22.30;101198.00;;;;5008645;28;20207;-50
2023/05/23 09:30:12;;;;;;;7.13;6.53;;;21.80;58.50;22.30;101208.00;;;;5009604;28;20183;-50
2023/05/23 09:32:38;;;;;;;6.93;6.43;;;21.80;58.50;22.30;101202.00;;;;5009443;28;20653;-51
2023/05/23 09:35:06;;;;;;;7.20;6.60;;;21.80;58.50;22.30;101212.00;;;;5009174;28;20660;-50
2023/05/23 09:37:49;;;;;;;7.27;6.60;;;21.80;58.50;22.30;101209.00;;;;5008145;28;20249;-51
2023/05/23 09:40:15;;;;;;;7.33;6.73;;;21.80;58.50;22.30;101210.00;;;;4991710;28;20181;-50
2023/05/23 09:42:43;;;;;;;6.87;6.27;;;21.80;58.50;22.30;101212.00;;;;5009245;28;20290;-51
2023/05/23 09:45:09;;;;;;;7.07;6.47;;;21.80;58.60;22.30;101214.00;;;;5009278;28;20237;-50
2023/05/23 09:47:35;;;;;;;7.73;6.40;;;21.80;58.60;22.30;101213.00;;;;5015338;28;20553;-50
2023/05/23 09:50:01;;;;;;;7.43;6.80;;;21.80;58.60;22.30;101221.00;;;;5008870;28;20483;-50
2023/05/23 09:52:26;;;;;;;7.63;6.93;;;21.80;58.60;22.30;101218.00;;;;5009106;28;20183;-50
2023/05/23 09:54:53;;;;;;;7.40;6.70;;;21.80;58.60;22.30;101212.00;;;;5009317;28;20176;-51
2023/05/23 09:57:19;;;;;;;7.10;6.57;;;21.80;58.60;22.30;101226.00;;;;5007581;28;20803;-50
2023/05/23 09:59:53;;;;;;;7.47;6.87;;;21.80;58.60;22.30;101216.00;;;;4975427;28;20204;-50
2023/05/23 10:03:00;;;;;;;7.50;6.80;;;21.80;58.60;22.30;101221.00;;;;5007809;28;20190;-52
2023/05/23 10:05:47;;;;;;;7.17;6.50;;;21.80;58.60;22.30;101220.00;;;;4994859;28;20220;-52
2023/05/23 10:08:19;;;;;;;6.93;6.43;;;21.80;58.70;22.30;101223.00;;;;5009095;28;20234;-51
2023/05/23 10:11:15;;;;;;;8.23;6.80;;;21.80;58.60;22.30;101227.00;;;;4992122;28;20187;-51
2023/05/23 10:13:44;;;;;;;8.43;7.10;;;21.80;58.70;22.30;101227.00;;;;5007985;28;20266;-52
2023/05/23 10:16:38;;;;;;;7.30;6.70;;;21.80;58.70;22.30;101227.00;;;;5008445;28;20192;-52
2023/05/23 10:19:10;;;;;;;8.10;7.33;;;21.80;58.60;22.30;101227.00;;;;5007879;28;20196;-52
2023/05/23 10:21:43;;;;;;;7.63;6.77;;;21.80;58.70;22.30;101237.00;;;;4991603;28;20183;-52
2023/05/23 10:24:09;;;;;;;7.70;6.90;;;21.80;58.70;22.30;101242.00;;;;4992613;28;20195;-52
2023/05/23 10:26:35;;;;;;;7.43;6.53;;;21.80;58.70;22.40;101242.00;;;;5007390;28;20673;-51
2023/05/23 10:29:00;;;;;;;8.40;7.27;;;21.80;58.70;22.40;101223.00;;;;5008065;28;20186;-52
2023/05/23 10:31:26;;;;;;;8.10;7.13;;;21.90;58.80;22.40;101249.00;;;;4976043;28;20183;-52
2023/05/23 10:34:40;;;;;;;7.47;6.80;;;21.80;59.00;22.40;101246.00;;;;4990677;28;20653;-52
2023/05/23 10:37:07;;;;;;;11.37;7.00;;;21.80;59.10;22.40;101254.00;;;;5011681;28;20803;-53
2023/05/23 10:39:54;;;;;;;9.13;7.00;;;21.90;59.60;22.40;101246.00;;;;5010764;28;20210;-51
2023/05/23 10:43:02;;;;;;;7.87;7.17;;;21.80;59.50;22.40;101259.00;;;;5012105;28;20180;-51
2023/05/23 10:45:28;;;;;;;8.13;7.53;;;21.90;59.40;22.40;101256.00;;;;5010466;28;20499;-52
2023/05/23 10:47:54;;;;;;;7.70;7.00;;;21.90;59.50;22.40;101257.00;;;;5018403;28;20199;-52